sensor_id;sensor_type;location;lat;lon;timestamp;pressure;altitude;pressure_sealevel;temperature;humidity
11444;BME280;5778;47.856;12.154;2023-03-31T00:01:38;95993.59;;;7.98;100.00
11444;BME280;5778;47.856;12.154;2023-03-31T00:04:09;95992.31;;;8.00;100.00
11444;BME280;5778;47.856;12.154;2023-03-31T00:06:38;95993.91;;;8.01;100.00
11444;BME280;5778;47.856;12.154;2023-03-31T00:09:08;95991.94;;;8.13;100.00
11444;BME280;5778;47.856;12.154;2023-03-31T00:11:35;95990.19;;;8.19;100.00
11444;BME280;5778;47.856;12.154;2023-03-31T00:14:40;95970.81;;;8.18;100.00
11444;BME280;5778;47.856;12.154;2023-03-31T00:17:07;95971.03;;;8.12;100.00
11444;BME280;5778;47.856;12.154;2023-03-31T00:19:36;95981.03;;;8.10;100.00
11444;BME280;5778;47.856;12.154;2023-03-31T00:22:04;95968.63;;;8.10;100.00
11444;BME280;5778;47.856;12.154;2023-03-31T00:24:42;95956.06;;;8.01;100.00
11444;BME280;5778;47.856;12.154;2023-03-31T00:27:09;95951.06;;;8.04;100.00
11444;BME280;5778;47.856;12.154;2023-03-31T00:29:37;95946.53;;;8.05;100.00
11444;BME280;5778;47.856;12.154;2023-03-31T00:32:06;95929.06;;;8.04;100.00
11444;BME280;5778;47.856;12.154;2023-03-31T00:35:07;95922.09;;;7.98;100.00
11444;BME280;5778;47.856;12.154;2023-03-31T00:37:34;95930.88;;;7.98;100.00
11444;BME280;5778;47.856;12.154;2023-03-31T00:40:02;95923.63;;;7.94;100.00
11444;BME280;5778;47.856;12.154;2023-03-31T00:42:38;95918.66;;;7.97;100.00
11444;BME280;5778;47.856;12.154;2023-03-31T00:45:24;95896.97;;;8.00;100.00
11444;BME280;5778;47.856;12.154;2023-03-31T00:47:53;95904.69;;;8.02;100.00
11444;BME280;5778;47.856;12.154;2023-03-31T00:50:25;95909.34;;;7.95;100.00
11444;BME280;5778;47.856;12.154;2023-03-31T00:52:59;95903.19;;;8.11;100.00
11444;BME280;5778;47.856;12.154;2023-03-31T00:55:32;95886.28;;;8.12;100.00
11444;BME280;5778;47.856;12.154;2023-03-31T00:58:02;95883.63;;;8.12;100.00
11444;BME280;5778;47.856;12.154;2023-03-31T01:00:31;95876.19;;;8.09;100.00
11444;BME280;5778;47.856;12.154;2023-03-31T01:06:27;95873.22;;;8.27;100.00
11444;BME280;5778;47.856;12.154;2023-03-31T01:08:55;95869.28;;;8.29;100.00
11444;BME280;5778;47.856;12.154;2023-03-31T01:11:23;95859.25;;;8.31;100.00
11444;BME280;5778;47.856;12.154;2023-03-31T01:14:28;95861.41;;;8.34;100.00
11444;BME280;5778;47.856;12.154;2023-03-31T01:16:55;95863.84;;;8.41;100.00
11444;BME280;5778;47.856;12.154;2023-03-31T01:19:31;95857.00;;;8.45;100.00
11444;BME280;5778;47.856;12.154;2023-03-31T01:22:38;95854.41;;;8.50;100.00
11444;BME280;5778;47.856;12.154;2023-03-31T01:25:42;95849.66;;;8.52;100.00
11444;BME280;5778;47.856;12.154;2023-03-31T01:28:22;95844.13;;;8.53;100.00
11444;BME280;5778;47.856;12.154;2023-03-31T01:31:25;95847.59;;;8.59;100.00
11444;BME280;5778;47.856;12.154;2023-03-31T01:34:22;95850.00;;;8.60;100.00
11444;BME280;5778;47.856;12.154;2023-03-31T01:40:15;95844.22;;;8.63;100.00
11444;BME280;5778;47.856;12.154;2023-03-31T01:42:54;95840.28;;;8.71;100.00
11444;BME280;5778;47.856;12.154;2023-03-31T01:45:30;95828.38;;;8.73;100.00
11444;BME280;5778;47.856;12.154;2023-03-31T01:48:07;95830.31;;;8.78;100.00
11444;BME280;5778;47.856;12.154;2023-03-31T01:50:42;95835.03;;;8.76;100.00
11444;BME280;5778;47.856;12.154;2023-03-31T01:53:32;95824.44;;;8.76;100.00
11444;BME280;5778;47.856;12.154;2023-03-31T01:56:06;95813.59;;;8.77;100.00
11444;BME280;5778;47.856;12.154;2023-03-31T01:58:36;95819.69;;;8.78;100.00
11444;BME280;5778;47.856;12.154;2023-03-31T02:01:09;95830.06;;;8.84;100.00
11444;BME280;5778;47.856;12.154;2023-03-31T02:03:58;95813.38;;;8.84;100.00
11444;BME280;5778;47.856;12.154;2023-03-31T02:06:30;95800.06;;;8.79;100.00
11444;BME280;5778;47.856;12.154;2023-03-31T02:09:01;95790.00;;;8.81;100.00
11444;BME280;5778;47.856;12.154;2023-03-31T02:11:32;95789.72;;;8.77;100.00
11444;BME280;5778;47.856;12.154;2023-03-31T02:14:03;95789.47;;;8.79;100.00
11444;BME280;5778;47.856;12.154;2023-03-31T02:16:35;95776.22;;;8.79;100.00
11444;BME280;5778;47.856;12.154;2023-03-31T02:19:07;95786.28;;;8.77;100.00
11444;BME280;5778;47.856;12.154;2023-03-31T02:21:39;95779.13;;;8.77;100.00
11444;BME280;5778;47.856;12.154;2023-03-31T02:24:16;95781.00;;;8.77;100.00
11444;BME280;5778;47.856;12.154;2023-03-31T02:26:52;95768.28;;;8.79;100.00
11444;BME280;5778;47.856;12.154;2023-03-31T02:29:20;95768.75;;;8.76;100.00
11444;BME280;5778;47.856;12.154;2023-03-31T02:31:52;95761.38;;;8.78;100.00
11444;BME280;5778;47.856;12.154;2023-03-31T02:34:24;95755.50;;;8.76;100.00
11444;BME280;5778;47.856;12.154;2023-03-31T02:36:51;95756.59;;;8.80;100.00
11444;BME280;5778;47.856;12.154;2023-03-31T02:39:22;95741.22;;;8.77;100.00
11444;BME280;5778;47.856;12.154;2023-03-31T02:41:53;95739.88;;;8.74;100.00
11444;BME280;5778;47.856;12.154;2023-03-31T02:44:23;95738.53;;;8.72;100.00
11444;BME280;5778;47.856;12.154;2023-03-31T02:46:51;95726.88;;;8.73;100.00
11444;BME280;5778;47.856;12.154;2023-03-31T02:49:19;95728.47;;;8.74;100.00
11444;BME280;5778;47.856;12.154;2023-03-31T02:55:23;95722.06;;;8.70;100.00
11444;BME280;5778;47.856;12.154;2023-03-31T03:01:07;95729.53;;;8.73;100.00
11444;BME280;5778;47.856;12.154;2023-03-31T03:06:55;95735.13;;;8.76;100.00
11444;BME280;5778;47.856;12.154;2023-03-31T03:09:34;95731.94;;;8.79;100.00
11444;BME280;5778;47.856;12.154;2023-03-31T03:12:12;95737.81;;;8.81;100.00
11444;BME280;5778;47.856;12.154;2023-03-31T03:15:06;95735.41;;;8.80;100.00
11444;BME280;5778;47.856;12.154;2023-03-31T03:17:38;95736.25;;;8.85;100.00
11444;BME280;5778;47.856;12.154;2023-03-31T03:20:08;95730.69;;;8.92;100.00
11444;BME280;5778;47.856;12.154;2023-03-31T03:22:36;95750.84;;;8.93;100.00
11444;BME280;5778;47.856;12.154;2023-03-31T03:25:04;95750.84;;;8.93;100.00
11444;BME280;5778;47.856;12.154;2023-03-31T03:27:31;95762.81;;;8.95;100.00
11444;BME280;5778;47.856;12.154;2023-03-31T03:29:58;95775.75;;;8.87;100.00
11444;BME280;5778;47.856;12.154;2023-03-31T03:32:28;95746.28;;;8.83;100.00
11444;BME280;5778;47.856;12.154;2023-03-31T03:34:55;95754.00;;;8.85;100.00
11444;BME280;5778;47.856;12.154;2023-03-31T03:37:22;95745.75;;;8.81;100.00
11444;BME280;5778;47.856;12.154;2023-03-31T03:39:49;95739.66;;;8.81;100.00
11444;BME280;5778;47.856;12.154;2023-03-31T03:42:16;95731.94;;;8.79;100.00
11444;BME280;5778;47.856;12.154;2023-03-31T03:45:05;95721.84;;;8.76;100.00
11444;BME280;5778;47.856;12.154;2023-03-31T03:47:33;95718.16;;;8.77;100.00
11444;BME280;5778;47.856;12.154;2023-03-31T03:50:02;95709.41;;;8.77;100.00
11444;BME280;5778;47.856;12.154;2023-03-31T03:52:29;95713.06;;;8.71;100.00
11444;BME280;5778;47.856;12.154;2023-03-31T03:54:57;95708.28;;;8.68;100.00
11444;BME280;5778;47.856;12.154;2023-03-31T03:57:26;95704.81;;;8.67;100.00
11444;BME280;5778;47.856;12.154;2023-03-31T03:59:52;95706.13;;;8.65;100.00
11444;BME280;5778;47.856;12.154;2023-03-31T04:02:19;95711.97;;;8.62;100.00
11444;BME280;5778;47.856;12.154;2023-03-31T04:05:08;95707.16;;;8.59;100.00
11444;BME280;5778;47.856;12.154;2023-03-31T04:07:35;95711.34;;;8.55;100.00
11444;BME280;5778;47.856;12.154;2023-03-31T04:10:02;95720.63;;;8.52;100.00
11444;BME280;5778;47.856;12.154;2023-03-31T04:12:29;95711.63;;;8.53;100.00
11444;BME280;5778;47.856;12.154;2023-03-31T04:15:06;95711.63;;;8.53;100.00
11444;BME280;5778;47.856;12.154;2023-03-31T04:17:34;95715.34;;;8.52;100.00
11444;BME280;5778;47.856;12.154;2023-03-31T04:20:04;95712.13;;;8.50;100.00
11444;BME280;5778;47.856;12.154;2023-03-31T04:22:37;95715.53;;;8.46;100.00
11444;BME280;5778;47.856;12.154;2023-03-31T04:25:07;95717.94;;;8.47;100.00
11444;BME280;5778;47.856;12.154;2023-03-31T04:27:39;95719.75;;;8.42;100.00
11444;BME280;5778;47.856;12.154;2023-03-31T04:30:12;95714.97;;;8.39;100.00
11444;BME280;5778;47.856;12.154;2023-03-31T04:33:08;95711.78;;;8.42;100.00
11444;BME280;5778;47.856;12.154;2023-03-31T04:35:35;95707.50;;;8.36;100.00
11444;BME280;5778;47.856;12.154;2023-03-31T04:38:15;95685.81;;;8.39;100.00
11444;BME280;5778;47.856;12.154;2023-03-31T04:40:45;95658.00;;;8.41;100.00
11444;BME280;5778;47.856;12.154;2023-03-31T04:43:21;95643.94;;;8.36;100.00
11444;BME280;5778;47.856;12.154;2023-03-31T04:45:49;95633.28;;;8.31;100.00
11444;BME280;5778;47.856;12.154;2023-03-31T04:48:16;95619.00;;;8.32;100.00
11444;BME280;5778;47.856;12.154;2023-03-31T04:50:45;95614.25;;;8.34;100.00
11444;BME280;5778;47.856;12.154;2023-03-31T04:53:25;95609.41;;;8.26;100.00
11444;BME280;5778;47.856;12.154;2023-03-31T04:55:52;95593.03;;;8.29;100.00
11444;BME280;5778;47.856;12.154;2023-03-31T04:58:18;95595.16;;;8.32;100.00
11444;BME280;5778;47.856;12.154;2023-03-31T05:00:45;95594.59;;;8.25;100.00
11444;BME280;5778;47.856;12.154;2023-03-31T05:03:29;95589.28;;;8.25;100.00
11444;BME280;5778;47.856;12.154;2023-03-31T05:05:56;95585.84;;;8.24;100.00
11444;BME280;5778;47.856;12.154;2023-03-31T05:08:24;95570.22;;;8.23;100.00
11444;BME280;5778;47.856;12.154;2023-03-31T05:10:53;95569.16;;;8.24;100.00
11444;BME280;5778;47.856;12.154;2023-03-31T05:13:52;95573.81;;;8.17;100.00
11444;BME280;5778;47.856;12.154;2023-03-31T05:16:19;95580.25;;;8.21;100.00
11444;BME280;5778;47.856;12.154;2023-03-31T05:18:46;95588.91;;;8.11;100.00
11444;BME280;5778;47.856;12.154;2023-03-31T05:21:14;95589.63;;;8.02;100.00
11444;BME280;5778;47.856;12.154;2023-03-31T05:27:30;95574.75;;;7.96;100.00
11444;BME280;5778;47.856;12.154;2023-03-31T05:29:57;95561.81;;;7.99;100.00
11444;BME280;5778;47.856;12.154;2023-03-31T05:32:25;95557.13;;;8.11;100.00
11444;BME280;5778;47.856;12.154;2023-03-31T05:34:58;95550.06;;;8.22;100.00
11444;BME280;5778;47.856;12.154;2023-03-31T05:37:25;95534.22;;;8.27;100.00
11444;BME280;5778;47.856;12.154;2023-03-31T05:39:52;95528.19;;;8.41;100.00
11444;BME280;5778;47.856;12.154;2023-03-31T05:42:19;95514.25;;;8.56;100.00
11444;BME280;5778;47.856;12.154;2023-03-31T05:44:47;95521.09;;;8.52;100.00
11444;BME280;5778;47.856;12.154;2023-03-31T05:47:15;95512.78;;;8.33;100.00
11444;BME280;5778;47.856;12.154;2023-03-31T05:49:42;95504.28;;;8.26;100.00
11444;BME280;5778;47.856;12.154;2023-03-31T05:52:10;95502.38;;;8.22;100.00
11444;BME280;5778;47.856;12.154;2023-03-31T05:54:52;95492.63;;;8.27;100.00
11444;BME280;5778;47.856;12.154;2023-03-31T05:57:19;95477.28;;;8.29;100.00
11444;BME280;5778;47.856;12.154;2023-03-31T05:59:48;95459.00;;;8.33;100.00
11444;BME280;5778;47.856;12.154;2023-03-31T06:02:14;95469.91;;;8.41;100.00
11444;BME280;5778;47.856;12.154;2023-03-31T06:04:47;95468.09;;;8.47;100.00
11444;BME280;5778;47.856;12.154;2023-03-31T06:07:14;95439.50;;;8.54;100.00
11444;BME280;5778;47.856;12.154;2023-03-31T06:09:42;95423.09;;;8.62;100.00
11444;BME280;5778;47.856;12.154;2023-03-31T06:12:09;95415.91;;;8.57;100.00
11444;BME280;5778;47.856;12.154;2023-03-31T06:14:50;95407.44;;;8.50;100.00
11444;BME280;5778;47.856;12.154;2023-03-31T06:17:17;95401.31;;;8.40;100.00
11444;BME280;5778;47.856;12.154;2023-03-31T06:19:44;95386.03;;;8.72;100.00
11444;BME280;5778;47.856;12.154;2023-03-31T06:22:10;95384.97;;;8.98;100.00
11444;BME280;5778;47.856;12.154;2023-03-31T06:24:50;95382.59;;;9.06;100.00
11444;BME280;5778;47.856;12.154;2023-03-31T06:27:17;95393.75;;;9.13;100.00
11444;BME280;5778;47.856;12.154;2023-03-31T06:29:44;95396.41;;;9.18;100.00
11444;BME280;5778;47.856;12.154;2023-03-31T06:32:12;95378.34;;;9.40;100.00
11444;BME280;5778;47.856;12.154;2023-03-31T06:35:02;95371.91;;;9.76;100.00
11444;BME280;5778;47.856;12.154;2023-03-31T06:37:29;95368.69;;;9.94;100.00
11444;BME280;5778;47.856;12.154;2023-03-31T06:39:56;95353.72;;;10.23;100.00
11444;BME280;5778;47.856;12.154;2023-03-31T06:42:23;95339.34;;;10.29;100.00
11444;BME280;5778;47.856;12.154;2023-03-31T06:45:02;95334.84;;;10.30;100.00
11444;BME280;5778;47.856;12.154;2023-03-31T06:47:30;95319.63;;;10.35;100.00
11444;BME280;5778;47.856;12.154;2023-03-31T06:49:57;95313.22;;;10.41;100.00
11444;BME280;5778;47.856;12.154;2023-03-31T06:52:24;95316.63;;;10.52;100.00
11444;BME280;5778;47.856;12.154;2023-03-31T06:54:57;95306.44;;;10.64;100.00
11444;BME280;5778;47.856;12.154;2023-03-31T06:57:24;95296.31;;;10.66;100.00
11444;BME280;5778;47.856;12.154;2023-03-31T06:59:52;95300.22;;;10.78;100.00
11444;BME280;5778;47.856;12.154;2023-03-31T07:02:19;95305.78;;;10.82;100.00
11444;BME280;5778;47.856;12.154;2023-03-31T07:05:22;95295.72;;;10.79;100.00
11444;BME280;5778;47.856;12.154;2023-03-31T07:07:51;95290.94;;;10.76;100.00
11444;BME280;5778;47.856;12.154;2023-03-31T07:10:18;95297.84;;;11.10;100.00
11444;BME280;5778;47.856;12.154;2023-03-31T07:12:45;95275.59;;;11.25;100.00
11444;BME280;5778;47.856;12.154;2023-03-31T07:15:12;95265.78;;;11.49;100.00
11444;BME280;5778;47.856;12.154;2023-03-31T07:17:39;95284.28;;;11.64;100.00
11444;BME280;5778;47.856;12.154;2023-03-31T07:20:08;95272.81;;;11.87;100.00
11444;BME280;5778;47.856;12.154;2023-03-31T07:22:41;95266.84;;;12.18;100.00
11444;BME280;5778;47.856;12.154;2023-03-31T07:25:09;95263.00;;;12.06;100.00
11444;BME280;5778;47.856;12.154;2023-03-31T07:27:36;95265.88;;;12.09;100.00
11444;BME280;5778;47.856;12.154;2023-03-31T07:30:04;95266.75;;;12.05;100.00
11444;BME280;5778;47.856;12.154;2023-03-31T07:32:31;95265.41;;;11.84;100.00
11444;BME280;5778;47.856;12.154;2023-03-31T07:34:59;95256.34;;;11.85;100.00
11444;BME280;5778;47.856;12.154;2023-03-31T07:37:26;95259.00;;;11.61;100.00
11444;BME280;5778;47.856;12.154;2023-03-31T07:39:55;95254.50;;;11.57;100.00
11444;BME280;5778;47.856;12.154;2023-03-31T07:42:22;95255.88;;;11.54;100.00
11444;BME280;5778;47.856;12.154;2023-03-31T07:44:49;95234.75;;;11.39;100.00
11444;BME280;5778;47.856;12.154;2023-03-31T07:47:16;95258.84;;;11.24;100.00
11444;BME280;5778;47.856;12.154;2023-03-31T07:49:43;95296.09;;;10.96;100.00
11444;BME280;5778;47.856;12.154;2023-03-31T07:52:10;95320.38;;;10.84;100.00
11444;BME280;5778;47.856;12.154;2023-03-31T07:54:50;95332.94;;;10.79;100.00
11444;BME280;5778;47.856;12.154;2023-03-31T07:57:18;95348.13;;;10.73;100.00
11444;BME280;5778;47.856;12.154;2023-03-31T07:59:45;95368.97;;;10.56;100.00
11444;BME280;5778;47.856;12.154;2023-03-31T08:02:14;95374.06;;;10.48;100.00
11444;BME280;5778;47.856;12.154;2023-03-31T08:04:58;95390.84;;;10.38;100.00
11444;BME280;5778;47.856;12.154;2023-03-31T08:07:25;95416.41;;;10.29;100.00
11444;BME280;5778;47.856;12.154;2023-03-31T08:09:58;95422.56;;;10.20;100.00
11444;BME280;5778;47.856;12.154;2023-03-31T08:12:26;95403.94;;;10.20;100.00
11444;BME280;5778;47.856;12.154;2023-03-31T08:14:53;95406.59;;;10.20;100.00
11444;BME280;5778;47.856;12.154;2023-03-31T08:17:20;95415.34;;;10.25;100.00
11444;BME280;5778;47.856;12.154;2023-03-31T08:19:47;95386.38;;;10.29;100.00
11444;BME280;5778;47.856;12.154;2023-03-31T08:22:16;95377.88;;;10.27;100.00
11444;BME280;5778;47.856;12.154;2023-03-31T08:24:43;95373.66;;;10.21;100.00
11444;BME280;5778;47.856;12.154;2023-03-31T08:27:10;95368.84;;;10.28;100.00
11444;BME280;5778;47.856;12.154;2023-03-31T08:29:38;95342.22;;;10.38;100.00
11444;BME280;5778;47.856;12.154;2023-03-31T08:32:06;95331.28;;;10.44;100.00
11444;BME280;5778;47.856;12.154;2023-03-31T08:34:33;95328.91;;;10.43;100.00
11444;BME280;5778;47.856;12.154;2023-03-31T08:37:00;95303.94;;;10.39;100.00
11444;BME280;5778;47.856;12.154;2023-03-31T08:39:27;95294.13;;;10.39;100.00
11444;BME280;5778;47.856;12.154;2023-03-31T08:41:57;95300.72;;;10.47;100.00
11444;BME280;5778;47.856;12.154;2023-03-31T08:44:30;95291.63;;;10.53;100.00
11444;BME280;5778;47.856;12.154;2023-03-31T08:47:00;95281.25;;;10.56;100.00
11444;BME280;5778;47.856;12.154;2023-03-31T08:49:41;95280.59;;;10.69;100.00
11444;BME280;5778;47.856;12.154;2023-03-31T08:52:12;95307.16;;;10.74;100.00
11444;BME280;5778;47.856;12.154;2023-03-31T08:54:43;95322.88;;;10.71;100.00
11444;BME280;5778;47.856;12.154;2023-03-31T08:57:15;95334.16;;;10.53;100.00
11444;BME280;5778;47.856;12.154;2023-03-31T08:59:44;95335.47;;;10.55;100.00
11444;BME280;5778;47.856;12.154;2023-03-31T09:02:20;95350.88;;;10.53;100.00
11444;BME280;5778;47.856;12.154;2023-03-31T09:04:59;95329.53;;;10.30;100.00
11444;BME280;5778;47.856;12.154;2023-03-31T09:07:36;95326.94;;;10.15;100.00
11444;BME280;5778;47.856;12.154;2023-03-31T09:10:19;95296.16;;;10.09;100.00
11444;BME280;5778;47.856;12.154;2023-03-31T09:12:52;95317.66;;;10.07;100.00
11444;BME280;5778;47.856;12.154;2023-03-31T09:15:25;95329.09;;;10.03;100.00
11444;BME280;5778;47.856;12.154;2023-03-31T09:17:57;95346.88;;;10.07;100.00
11444;BME280;5778;47.856;12.154;2023-03-31T09:20:30;95320.56;;;10.11;100.00
11444;BME280;5778;47.856;12.154;2023-03-31T09:23:01;95309.81;;;10.36;100.00
11444;BME280;5778;47.856;12.154;2023-03-31T09:25:35;95311.97;;;10.29;100.00
11444;BME280;5778;47.856;12.154;2023-03-31T09:28:05;95315.63;;;10.43;100.00
11444;BME280;5778;47.856;12.154;2023-03-31T09:30:39;95312.66;;;10.49;100.00
11444;BME280;5778;47.856;12.154;2023-03-31T09:33:12;95317.94;;;10.93;100.00
11444;BME280;5778;47.856;12.154;2023-03-31T09:35:40;95310.91;;;11.07;100.00
11444;BME280;5778;47.856;12.154;2023-03-31T09:38:08;95300.59;;;11.29;100.00
11444;BME280;5778;47.856;12.154;2023-03-31T09:40:35;95310.44;;;11.57;100.00
11444;BME280;5778;47.856;12.154;2023-03-31T09:43:04;95307.06;;;11.75;100.00
11444;BME280;5778;47.856;12.154;2023-03-31T09:45:31;95306.66;;;11.86;100.00
11444;BME280;5778;47.856;12.154;2023-03-31T09:48:01;95281.22;;;11.99;100.00
11444;BME280;5778;47.856;12.154;2023-03-31T09:50:35;95280.28;;;12.08;100.00
11444;BME280;5778;47.856;12.154;2023-03-31T09:53:14;95269.06;;;12.30;100.00
11444;BME280;5778;47.856;12.154;2023-03-31T09:55:45;95271.94;;;12.52;100.00
11444;BME280;5778;47.856;12.154;2023-03-31T09:58:14;95272.53;;;12.67;100.00
11444;BME280;5778;47.856;12.154;2023-03-31T10:00:43;95265.66;;;12.80;100.00
11444;BME280;5778;47.856;12.154;2023-03-31T10:03:21;95272.19;;;12.87;100.00
11444;BME280;5778;47.856;12.154;2023-03-31T10:05:55;95276.66;;;12.92;100.00
11444;BME280;5778;47.856;12.154;2023-03-31T10:08:29;95264.06;;;12.97;100.00
11444;BME280;5778;47.856;12.154;2023-03-31T10:11:05;95257.75;;;13.07;100.00
11444;BME280;5778;47.856;12.154;2023-03-31T10:13:39;95236.63;;;13.10;100.00
11444;BME280;5778;47.856;12.154;2023-03-31T10:16:11;95226.34;;;13.17;100.00
11444;BME280;5778;47.856;12.154;2023-03-31T10:18:41;95231.09;;;13.20;100.00
11444;BME280;5778;47.856;12.154;2023-03-31T10:21:20;95220.94;;;13.22;100.00
11444;BME280;5778;47.856;12.154;2023-03-31T10:23:49;95212.50;;;13.29;100.00
11444;BME280;5778;47.856;12.154;2023-03-31T10:26:18;95207.28;;;13.24;100.00
11444;BME280;5778;47.856;12.154;2023-03-31T10:28:47;95212.63;;;13.24;100.00
11444;BME280;5778;47.856;12.154;2023-03-31T10:31:18;95211.34;;;13.21;100.00
11444;BME280;5778;47.856;12.154;2023-03-31T10:33:46;95199.88;;;13.21;100.00
11444;BME280;5778;47.856;12.154;2023-03-31T10:36:20;95211.03;;;13.23;100.00
11444;BME280;5778;47.856;12.154;2023-03-31T10:38:49;95206.78;;;13.22;100.00
11444;BME280;5778;47.856;12.154;2023-03-31T10:41:17;95195.22;;;13.26;100.00
11444;BME280;5778;47.856;12.154;2023-03-31T10:43:49;95188.28;;;13.25;100.00
11444;BME280;5778;47.856;12.154;2023-03-31T10:46:17;95187.31;;;13.21;100.00
11444;BME280;5778;47.856;12.154;2023-03-31T10:48:44;95184.13;;;13.19;100.00
11444;BME280;5778;47.856;12.154;2023-03-31T10:51:17;95182.28;;;13.20;100.00
11444;BME280;5778;47.856;12.154;2023-03-31T10:53:46;95162.69;;;13.11;100.00
11444;BME280;5778;47.856;12.154;2023-03-31T10:56:28;95155.19;;;13.13;100.00
11444;BME280;5778;47.856;12.154;2023-03-31T10:59:13;95168.91;;;13.06;100.00
11444;BME280;5778;47.856;12.154;2023-03-31T11:01:53;95162.28;;;13.04;100.00
11444;BME280;5778;47.856;12.154;2023-03-31T11:04:34;95155.84;;;13.05;100.00
11444;BME280;5778;47.856;12.154;2023-03-31T11:07:15;95156.22;;;12.98;100.00
11444;BME280;5778;47.856;12.154;2023-03-31T11:09:52;95155.38;;;13.03;100.00
11444;BME280;5778;47.856;12.154;2023-03-31T11:12:25;95151.59;;;13.04;100.00
11444;BME280;5778;47.856;12.154;2023-03-31T11:15:04;95146.34;;;12.99;100.00
11444;BME280;5778;47.856;12.154;2023-03-31T11:17:47;95142.59;;;13.00;100.00
11444;BME280;5778;47.856;12.154;2023-03-31T11:20:22;95130.84;;;13.01;100.00
11444;BME280;5778;47.856;12.154;2023-03-31T11:22:58;95113.25;;;13.00;100.00
11444;BME280;5778;47.856;12.154;2023-03-31T11:25:33;95122.06;;;13.00;100.00
11444;BME280;5778;47.856;12.154;2023-03-31T11:28:21;95105.25;;;13.00;100.00
11444;BME280;5778;47.856;12.154;2023-03-31T11:30:57;95095.75;;;13.07;100.00
11444;BME280;5778;47.856;12.154;2023-03-31T11:33:44;95074.03;;;13.14;100.00
11444;BME280;5778;47.856;12.154;2023-03-31T11:36:25;95068.78;;;13.09;100.00
11444;BME280;5778;47.856;12.154;2023-03-31T11:39:07;95053.75;;;13.13;100.00
11444;BME280;5778;47.856;12.154;2023-03-31T11:41:41;95064.22;;;13.09;100.00
11444;BME280;5778;47.856;12.154;2023-03-31T11:44:12;95061.06;;;13.07;100.00
11444;BME280;5778;47.856;12.154;2023-03-31T11:46:43;95075.88;;;13.00;100.00
11444;BME280;5778;47.856;12.154;2023-03-31T11:49:17;95091.13;;;12.99;100.00
11444;BME280;5778;47.856;12.154;2023-03-31T11:51:50;95115.88;;;12.86;100.00
11444;BME280;5778;47.856;12.154;2023-03-31T11:54:27;95139.69;;;12.83;100.00
11444;BME280;5778;47.856;12.154;2023-03-31T11:56:55;95191.25;;;12.78;100.00
11444;BME280;5778;47.856;12.154;2023-03-31T11:59:24;95181.19;;;12.06;100.00
11444;BME280;5778;47.856;12.154;2023-03-31T12:02:00;95244.06;;;11.37;100.00
11444;BME280;5778;47.856;12.154;2023-03-31T12:04:41;95213.28;;;10.79;100.00
11444;BME280;5778;47.856;12.154;2023-03-31T12:07:19;95236.94;;;10.47;100.00
11444;BME280;5778;47.856;12.154;2023-03-31T12:09:53;95245.72;;;10.04;100.00
11444;BME280;5778;47.856;12.154;2023-03-31T12:12:28;95249.50;;;9.83;100.00
11444;BME280;5778;47.856;12.154;2023-03-31T12:15:05;95220.38;;;9.68;100.00
11444;BME280;5778;47.856;12.154;2023-03-31T12:17:37;95061.72;;;9.60;100.00
11444;BME280;5778;47.856;12.154;2023-03-31T12:20:12;95141.91;;;9.95;100.00
11444;BME280;5778;47.856;12.154;2023-03-31T12:22:43;95135.41;;;9.73;100.00
11444;BME280;5778;47.856;12.154;2023-03-31T12:25:13;95093.59;;;9.88;100.00
11444;BME280;5778;47.856;12.154;2023-03-31T12:27:42;95102.06;;;9.95;100.00
11444;BME280;5778;47.856;12.154;2023-03-31T12:30:11;95120.09;;;9.98;100.00
11444;BME280;5778;47.856;12.154;2023-03-31T12:32:41;95124.28;;;10.09;100.00
11444;BME280;5778;47.856;12.154;2023-03-31T12:35:15;95111.81;;;10.10;100.00
11444;BME280;5778;47.856;12.154;2023-03-31T12:38:28;95121.88;;;10.13;100.00
11444;BME280;5778;47.856;12.154;2023-03-31T12:41:06;95119.28;;;10.08;100.00
11444;BME280;5778;47.856;12.154;2023-03-31T12:47:07;95099.22;;;10.20;100.00
11444;BME280;5778;47.856;12.154;2023-03-31T12:49:54;95091.25;;;10.20;100.00
11444;BME280;5778;47.856;12.154;2023-03-31T12:52:31;95073.09;;;10.32;100.00
11444;BME280;5778;47.856;12.154;2023-03-31T12:55:28;95059.41;;;10.44;100.00
11444;BME280;5778;47.856;12.154;2023-03-31T13:01:06;95068.38;;;10.53;100.00
11444;BME280;5778;47.856;12.154;2023-03-31T13:03:49;95063.78;;;10.58;100.00
11444;BME280;5778;47.856;12.154;2023-03-31T13:06:55;95064.47;;;10.69;100.00
11444;BME280;5778;47.856;12.154;2023-03-31T13:09:57;95080.44;;;10.69;100.00
11444;BME280;5778;47.856;12.154;2023-03-31T13:12:25;95066.00;;;10.75;100.00
11444;BME280;5778;47.856;12.154;2023-03-31T13:18:05;95062.88;;;10.91;100.00
11444;BME280;5778;47.856;12.154;2023-03-31T13:20:34;95069.06;;;10.87;100.00
11444;BME280;5778;47.856;12.154;2023-03-31T13:23:16;95083.38;;;10.91;100.00
11444;BME280;5778;47.856;12.154;2023-03-31T13:25:47;95103.69;;;10.82;100.00
11444;BME280;5778;47.856;12.154;2023-03-31T13:28:33;95236.06;;;10.13;100.00
11444;BME280;5778;47.856;12.154;2023-03-31T13:31:01;95181.28;;;10.27;100.00
11444;BME280;5778;47.856;12.154;2023-03-31T13:37:06;95164.94;;;10.10;100.00
11444;BME280;5778;47.856;12.154;2023-03-31T13:39:55;95156.50;;;9.98;100.00
11444;BME280;5778;47.856;12.154;2023-03-31T13:42:50;95150.13;;;9.94;100.00
11444;BME280;5778;47.856;12.154;2023-03-31T13:45:32;95121.94;;;10.03;100.00
11444;BME280;5778;47.856;12.154;2023-03-31T13:48:16;95114.22;;;10.01;100.00
11444;BME280;5778;47.856;12.154;2023-03-31T13:51:13;95095.78;;;9.81;100.00
11444;BME280;5778;47.856;12.154;2023-03-31T13:57:43;95085.66;;;9.50;100.00
11444;BME280;5778;47.856;12.154;2023-03-31T14:00:27;95094.16;;;9.47;100.00
11444;BME280;5778;47.856;12.154;2023-03-31T14:06:19;95081.72;;;9.42;100.00
11444;BME280;5778;47.856;12.154;2023-03-31T14:08:50;95087.81;;;9.43;100.00